createdAt,value
2022-09-30T00:00:10.907Z,8.68
2022-09-30T00:01:10.895Z,8.65
2022-09-30T00:02:10.994Z,8.63
2022-09-30T00:03:10.952Z,8.62
2022-09-30T00:04:10.858Z,8.59
2022-09-30T00:05:10.844Z,8.62
2022-09-30T00:06:10.841Z,8.63
2022-09-30T00:07:10.932Z,8.63
2022-09-30T00:08:10.833Z,8.61
2022-09-30T00:09:10.831Z,8.61
2022-09-30T00:10:10.802Z,8.61
2022-09-30T00:11:10.786Z,8.59
2022-09-30T00:12:10.773Z,8.59
2022-09-30T00:13:10.770Z,8.59
2022-09-30T00:14:10.890Z,8.59
2022-09-30T00:15:10.738Z,8.58
2022-09-30T00:16:10.805Z,8.56
2022-09-30T00:17:10.723Z,8.55
2022-09-30T00:18:10.721Z,8.55
2022-09-30T00:19:10.778Z,8.53
2022-09-30T00:20:10.686Z,8.53
2022-09-30T00:21:10.678Z,8.50
2022-09-30T00:22:10.662Z,8.50
2022-09-30T00:23:10.666Z,8.48
2022-09-30T00:24:10.659Z,8.47
2022-09-30T00:25:10.636Z,8.45
2022-09-30T00:26:10.618Z,8.43
2022-09-30T00:27:10.612Z,8.40
2022-09-30T00:28:10.620Z,8.38
2022-09-30T00:29:10.594Z,8.38
2022-09-30T00:30:10.581Z,8.38
2022-09-30T00:31:10.721Z,8.37
2022-09-30T00:32:10.555Z,8.37
2022-09-30T00:33:10.553Z,8.37
2022-09-30T00:34:10.533Z,8.36
2022-09-30T00:35:10.527Z,8.33
2022-09-30T00:36:10.518Z,8.30
2022-09-30T00:37:10.501Z,8.28
2022-09-30T00:38:10.588Z,8.30
2022-09-30T00:39:10.485Z,8.29
2022-09-30T00:40:10.467Z,8.29
2022-09-30T00:41:10.459Z,8.30
2022-09-30T00:42:10.444Z,8.30
2022-09-30T00:43:10.449Z,8.28
2022-09-30T00:44:10.423Z,8.29
2022-09-30T00:45:10.428Z,8.30
2022-09-30T00:46:10.439Z,8.30
2022-09-30T00:47:10.500Z,8.33
2022-09-30T00:48:10.394Z,8.33
2022-09-30T00:49:10.375Z,8.30
2022-09-30T00:50:10.373Z,8.28
2022-09-30T00:51:10.358Z,8.26
2022-09-30T00:52:10.345Z,8.25
2022-09-30T00:53:10.339Z,8.23
2022-09-30T00:54:10.424Z,8.22
2022-09-30T00:55:10.308Z,8.25
2022-09-30T00:56:10.295Z,8.23
2022-09-30T00:57:10.285Z,8.22
2022-09-30T00:58:10.294Z,8.22
2022-09-30T00:59:10.287Z,8.19
2022-09-30T01:00:11.217Z,8.18
2022-09-30T01:01:10.319Z,8.15
2022-09-30T01:02:10.359Z,8.12
2022-09-30T01:03:10.250Z,8.10
2022-09-30T01:04:10.224Z,8.08
2022-09-30T01:05:10.329Z,8.08
2022-09-30T01:06:10.220Z,8.05
2022-09-30T01:07:10.294Z,8.04
2022-09-30T01:08:10.173Z,8.05
2022-09-30T01:09:10.236Z,8.04
2022-09-30T01:10:10.148Z,8.02
2022-09-30T01:11:10.139Z,8.02
2022-09-30T01:12:10.134Z,8.02
2022-09-30T01:13:10.118Z,8.00
2022-09-30T01:14:10.113Z,8.01
2022-09-30T01:15:10.096Z,8.00
2022-09-30T01:16:10.159Z,8.00
2022-09-30T01:17:10.076Z,8.01
2022-09-30T01:18:10.061Z,8.01
2022-09-30T01:19:10.081Z,8.00
2022-09-30T01:20:10.045Z,7.98
2022-09-30T01:21:10.138Z,8.00
2022-09-30T01:22:10.022Z,7.98
2022-09-30T01:23:10.038Z,7.97
2022-09-30T01:24:09.997Z,7.95
2022-09-30T01:25:10.000Z,7.93
2022-09-30T01:26:09.997Z,7.89
2022-09-30T01:27:10.015Z,7.89
2022-09-30T01:28:09.963Z,7.86
2022-09-30T01:29:09.968Z,7.86
2022-09-30T01:30:09.958Z,7.83
2022-09-30T01:31:09.942Z,7.86
2022-09-30T01:32:09.911Z,7.83
2022-09-30T01:33:09.933Z,7.83
2022-09-30T01:34:09.890Z,7.80
2022-09-30T01:35:09.891Z,7.79
2022-09-30T01:36:09.901Z,7.77
2022-09-30T01:37:09.859Z,7.79
2022-09-30T01:38:09.847Z,7.77
2022-09-30T01:39:09.839Z,7.77
2022-09-30T01:40:09.965Z,7.77
2022-09-30T01:41:09.824Z,7.75
2022-09-30T01:42:09.819Z,7.75
2022-09-30T01:43:09.801Z,7.74
2022-09-30T01:44:09.785Z,7.71
2022-09-30T01:45:09.813Z,7.69
2022-09-30T01:46:09.762Z,7.69
2022-09-30T01:47:09.766Z,7.69
2022-09-30T01:48:09.741Z,7.71
2022-09-30T01:49:09.731Z,7.69
2022-09-30T01:50:09.719Z,7.69
2022-09-30T01:51:09.723Z,7.68
2022-09-30T01:52:09.704Z,7.64
2022-09-30T01:53:09.702Z,7.63
2022-09-30T01:54:09.673Z,7.63
2022-09-30T01:55:09.708Z,7.64
2022-09-30T01:56:09.657Z,7.63
2022-09-30T01:57:09.648Z,7.64
2022-09-30T01:58:09.643Z,7.61
2022-09-30T01:59:09.618Z,7.61
2022-09-30T02:00:09.610Z,7.64
2022-09-30T02:01:09.773Z,7.63
2022-09-30T02:02:09.686Z,7.61
2022-09-30T02:03:09.591Z,7.58
2022-09-30T02:04:09.582Z,7.58
2022-09-30T02:05:09.558Z,7.61
2022-09-30T02:06:09.552Z,7.58
2022-09-30T02:07:09.530Z,7.58
2022-09-30T02:08:09.524Z,7.57
2022-09-30T02:09:09.594Z,7.57
2022-09-30T02:10:09.506Z,7.57
2022-09-30T02:11:09.488Z,7.57
2022-09-30T02:12:09.487Z,7.58
2022-09-30T02:13:09.465Z,7.58
2022-09-30T02:14:09.473Z,7.57
2022-09-30T02:15:09.529Z,7.57
2022-09-30T02:16:09.482Z,7.55
2022-09-30T02:17:09.428Z,7.57
2022-09-30T02:18:09.417Z,7.55
2022-09-30T02:19:09.410Z,7.53
2022-09-30T02:20:09.441Z,7.55
2022-09-30T02:21:09.469Z,7.52
2022-09-30T02:22:09.373Z,7.52
2022-09-30T02:23:09.360Z,7.52
2022-09-30T02:24:09.355Z,7.53
2022-09-30T02:25:09.348Z,7.55
2022-09-30T02:26:09.322Z,7.53
2022-09-30T02:27:09.350Z,7.55
2022-09-30T02:28:09.302Z,7.57
2022-09-30T02:29:09.294Z,7.58
2022-09-30T02:30:09.294Z,7.58
2022-09-30T02:31:09.346Z,7.58
2022-09-30T02:32:09.256Z,7.60
2022-09-30T02:33:09.491Z,7.58
2022-09-30T02:34:09.232Z,7.55
2022-09-30T02:35:09.257Z,7.53
2022-09-30T02:36:09.217Z,7.53
2022-09-30T02:37:09.221Z,7.53
2022-09-30T02:38:09.203Z,7.57
2022-09-30T02:39:09.240Z,7.55
2022-09-30T02:40:09.174Z,7.55
2022-09-30T02:41:09.174Z,7.57
2022-09-30T02:42:09.147Z,7.55
2022-09-30T02:43:09.150Z,7.52
2022-09-30T02:44:09.126Z,7.50
2022-09-30T02:45:09.168Z,7.49
2022-09-30T02:46:09.156Z,7.49
2022-09-30T02:47:09.099Z,7.48
2022-09-30T02:48:09.157Z,7.49
2022-09-30T02:49:09.078Z,7.50
2022-09-30T02:50:09.061Z,7.52
2022-09-30T02:51:09.129Z,7.53
2022-09-30T02:52:09.047Z,7.53
2022-09-30T02:53:09.027Z,7.57
2022-09-30T02:54:09.121Z,7.58
2022-09-30T02:55:09.009Z,7.58
2022-09-30T02:56:09.002Z,7.57
2022-09-30T02:57:09.050Z,7.60
2022-09-30T02:58:08.976Z,7.58
2022-09-30T02:59:08.963Z,7.55
2022-09-30T03:00:12.758Z,7.57
2022-09-30T03:01:08.985Z,7.57
2022-09-30T03:02:08.978Z,7.58
2022-09-30T03:03:08.916Z,7.58
2022-09-30T03:04:08.908Z,7.60
2022-09-30T03:05:08.898Z,7.60
2022-09-30T03:06:08.948Z,7.58
2022-09-30T03:07:08.883Z,7.60
2022-09-30T03:08:08.863Z,7.60
2022-09-30T03:09:08.873Z,7.61
2022-09-30T03:10:08.837Z,7.61
2022-09-30T03:11:08.837Z,7.60
2022-09-30T03:12:09.081Z,7.63
2022-09-30T03:13:08.808Z,7.63
2022-09-30T03:14:08.797Z,7.63
2022-09-30T03:15:08.789Z,7.64
2022-09-30T03:16:13.155Z,7.64
2022-09-30T03:17:08.779Z,7.64
2022-09-30T03:18:08.814Z,7.63
2022-09-30T03:19:08.746Z,7.67
2022-09-30T03:20:08.728Z,7.64
2022-09-30T03:21:08.723Z,7.64
2022-09-30T03:22:08.711Z,7.64
2022-09-30T03:23:08.713Z,7.63
2022-09-30T03:24:08.921Z,7.63
2022-09-30T03:25:08.685Z,7.63
2022-09-30T03:26:08.661Z,7.63
2022-09-30T03:27:08.660Z,7.64
2022-09-30T03:28:08.642Z,7.63
2022-09-30T03:29:08.657Z,7.63
2022-09-30T03:30:08.725Z,7.61
2022-09-30T03:31:08.665Z,7.57
2022-09-30T03:32:08.597Z,7.52
2022-09-30T03:33:08.589Z,7.50
2022-09-30T03:34:08.589Z,7.48
2022-09-30T03:35:08.569Z,7.46
2022-09-30T03:36:08.709Z,7.46
2022-09-30T03:37:08.549Z,7.45
2022-09-30T03:38:08.534Z,7.40
2022-09-30T03:39:08.537Z,7.39
2022-09-30T03:40:08.508Z,7.39
2022-09-30T03:41:08.513Z,7.35
2022-09-30T03:42:08.493Z,7.32
2022-09-30T03:43:08.479Z,7.31
2022-09-30T03:44:08.535Z,7.30
2022-09-30T03:45:08.479Z,7.28
2022-09-30T03:46:08.445Z,7.27
2022-09-30T03:47:08.438Z,7.27
2022-09-30T03:48:08.423Z,7.25
2022-09-30T03:49:08.411Z,7.27
2022-09-30T03:50:08.498Z,7.25
2022-09-30T03:51:08.393Z,7.27
2022-09-30T03:52:08.383Z,7.27
2022-09-30T03:53:08.386Z,7.31
2022-09-30T03:54:08.351Z,7.30
2022-09-30T03:55:08.352Z,7.31
2022-09-30T03:56:08.433Z,7.31
2022-09-30T03:57:08.328Z,7.31
2022-09-30T03:58:08.317Z,7.32
2022-09-30T03:59:08.315Z,7.31
2022-09-30T04:00:08.318Z,7.30
2022-09-30T04:01:08.321Z,7.30
2022-09-30T04:02:08.321Z,7.28
2022-09-30T04:03:08.307Z,7.27
2022-09-30T04:04:08.249Z,7.27
2022-09-30T04:05:08.251Z,7.24
2022-09-30T04:06:08.222Z,7.24
2022-09-30T04:07:08.220Z,7.21
2022-09-30T04:08:08.204Z,7.21
2022-09-30T04:09:08.296Z,7.23
2022-09-30T04:10:08.195Z,7.21
2022-09-30T04:11:08.187Z,7.17
2022-09-30T04:12:08.164Z,7.15
2022-09-30T04:13:08.153Z,7.12
2022-09-30T04:14:08.140Z,7.07
2022-09-30T04:15:08.138Z,7.06
2022-09-30T04:16:08.169Z,7.03
2022-09-30T04:17:08.117Z,7.05
2022-09-30T04:18:08.089Z,7.05
2022-09-30T04:19:08.094Z,7.06
2022-09-30T04:20:08.080Z,7.07
2022-09-30T04:21:08.078Z,7.06
2022-09-30T04:22:08.053Z,7.06
2022-09-30T04:23:08.043Z,7.06
2022-09-30T04:24:08.070Z,7.07
2022-09-30T04:25:08.032Z,7.10
2022-09-30T04:26:08.015Z,7.12
2022-09-30T04:27:08.002Z,7.12
2022-09-30T04:28:07.989Z,7.10
2022-09-30T04:29:07.978Z,7.09
2022-09-30T04:30:07.977Z,7.09
2022-09-30T04:31:08.029Z,7.10
2022-09-30T04:32:07.948Z,7.12
2022-09-30T04:33:07.949Z,7.10
2022-09-30T04:34:07.932Z,7.13
2022-09-30T04:35:07.913Z,7.13
2022-09-30T04:36:07.904Z,7.15
2022-09-30T04:37:10.906Z,7.15
2022-09-30T04:38:07.880Z,7.15
2022-09-30T04:39:07.877Z,7.15
2022-09-30T04:40:07.852Z,7.15
2022-09-30T04:41:07.880Z,7.16
2022-09-30T04:42:07.837Z,7.15
2022-09-30T04:43:07.826Z,7.15
2022-09-30T04:44:07.827Z,7.13
2022-09-30T04:45:07.837Z,7.12
2022-09-30T04:46:07.823Z,7.12
2022-09-30T04:47:07.784Z,7.10
2022-09-30T04:48:07.764Z,7.10
2022-09-30T04:49:09.284Z,7.09
2022-09-30T04:50:07.749Z,7.07
2022-09-30T04:51:07.760Z,7.12
2022-09-30T04:52:07.744Z,7.10
2022-09-30T04:53:07.721Z,7.10
2022-09-30T04:54:07.712Z,7.12
2022-09-30T04:55:07.702Z,7.10
2022-09-30T04:56:07.700Z,7.12
2022-09-30T04:57:07.693Z,7.10
2022-09-30T04:58:07.656Z,7.10
2022-09-30T04:59:07.659Z,7.09
2022-09-30T05:00:07.638Z,7.10
2022-09-30T05:01:07.667Z,7.09
2022-09-30T05:02:07.725Z,7.09
2022-09-30T05:03:07.615Z,7.09
2022-09-30T05:04:07.595Z,7.07
2022-09-30T05:05:07.586Z,7.07
2022-09-30T05:06:07.573Z,7.07
2022-09-30T05:07:07.584Z,7.05
2022-09-30T05:08:07.553Z,7.03
2022-09-30T05:09:07.604Z,7.02
2022-09-30T05:10:07.532Z,6.99
2022-09-30T05:11:07.519Z,6.98
2022-09-30T05:12:07.581Z,6.98
2022-09-30T05:13:07.506Z,6.97
2022-09-30T05:14:07.483Z,6.98
2022-09-30T05:15:07.485Z,6.98
2022-09-30T05:16:07.492Z,6.97
2022-09-30T05:17:07.469Z,6.97
2022-09-30T05:18:07.442Z,6.94
2022-09-30T05:19:07.447Z,6.95
2022-09-30T05:20:07.424Z,6.94
2022-09-30T05:21:07.416Z,6.94
2022-09-30T05:22:07.457Z,6.91
2022-09-30T05:23:07.402Z,6.91
2022-09-30T05:24:07.383Z,6.91
2022-09-30T05:25:07.376Z,6.91
2022-09-30T05:26:11.742Z,6.92
2022-09-30T05:27:07.373Z,6.91
2022-09-30T05:28:07.343Z,6.91
2022-09-30T05:29:07.325Z,6.91
2022-09-30T05:30:07.329Z,6.89
2022-09-30T05:31:07.403Z,6.89
2022-09-30T05:32:07.313Z,6.87
2022-09-30T05:33:07.295Z,6.87
2022-09-30T05:34:07.278Z,6.85
2022-09-30T05:35:07.266Z,6.88
2022-09-30T05:36:07.288Z,6.88
2022-09-30T05:37:07.256Z,6.88
2022-09-30T05:38:07.238Z,6.91
2022-09-30T05:39:07.229Z,6.91
2022-09-30T05:40:07.217Z,6.91
2022-09-30T05:41:07.213Z,6.92
2022-09-30T05:42:10.871Z,6.92
2022-09-30T05:43:07.195Z,6.95
2022-09-30T05:44:07.167Z,6.95
2022-09-30T05:45:07.163Z,6.95
2022-09-30T05:46:07.144Z,6.94
2022-09-30T05:47:07.268Z,6.94
2022-09-30T05:48:07.128Z,6.95
2022-09-30T05:49:07.134Z,6.95
2022-09-30T05:50:07.104Z,6.94
2022-09-30T05:51:07.100Z,6.94
2022-09-30T05:52:07.083Z,6.94
2022-09-30T05:53:07.095Z,6.94
2022-09-30T05:54:07.056Z,6.95
2022-09-30T05:55:07.052Z,6.97
2022-09-30T05:56:07.033Z,6.98
2022-09-30T05:57:07.027Z,6.98
2022-09-30T05:58:07.023Z,7.03
2022-09-30T05:59:07.029Z,7.03
2022-09-30T06:00:07.017Z,7.03
2022-09-30T06:01:12.096Z,7.05
2022-09-30T06:02:07.065Z,7.07
2022-09-30T06:03:07.048Z,7.10
2022-09-30T06:04:06.976Z,7.13
2022-09-30T06:05:06.953Z,7.13
2022-09-30T06:06:06.940Z,7.20
2022-09-30T06:07:10.343Z,7.20
2022-09-30T06:08:06.930Z,7.23
2022-09-30T06:09:06.968Z,7.23
2022-09-30T06:10:06.882Z,7.25
2022-09-30T06:11:06.887Z,7.28
2022-09-30T06:12:06.868Z,7.31
2022-09-30T06:13:06.862Z,7.32
2022-09-30T06:14:06.879Z,7.37
2022-09-30T06:15:06.840Z,7.42
2022-09-30T06:16:06.876Z,7.45
2022-09-30T06:17:06.827Z,7.46
2022-09-30T06:18:06.814Z,7.48
2022-09-30T06:19:06.792Z,7.52
2022-09-30T06:20:06.773Z,7.55
2022-09-30T06:21:06.769Z,7.58
2022-09-30T06:22:06.757Z,7.58
2022-09-30T06:23:06.771Z,7.61
2022-09-30T06:24:06.735Z,7.64
2022-09-30T06:25:06.786Z,7.67
2022-09-30T06:26:07.392Z,7.71
2022-09-30T06:27:06.697Z,7.72
2022-09-30T06:28:06.703Z,7.74
2022-09-30T06:29:06.731Z,7.79
2022-09-30T06:30:06.670Z,7.80
2022-09-30T06:31:06.654Z,7.83
2022-09-30T06:32:06.687Z,7.85
2022-09-30T06:33:06.688Z,7.87
2022-09-30T06:34:06.659Z,7.87
2022-09-30T06:35:06.632Z,7.90
2022-09-30T06:36:06.607Z,7.92
2022-09-30T06:37:06.590Z,7.95
2022-09-30T06:38:06.594Z,7.98
2022-09-30T06:39:10.258Z,8.02
2022-09-30T06:40:06.576Z,8.01
2022-09-30T06:41:06.542Z,8.05
2022-09-30T06:42:06.549Z,8.07
2022-09-30T06:43:06.535Z,8.05
2022-09-30T06:44:08.242Z,8.07
2022-09-30T06:45:06.505Z,8.08
2022-09-30T06:46:15.319Z,8.08
2022-09-30T06:47:15.266Z,8.11
2022-09-30T06:48:06.525Z,8.12
2022-09-30T06:49:13.407Z,8.16
2022-09-30T06:50:08.125Z,8.19
2022-09-30T06:51:06.440Z,8.22
2022-09-30T06:52:06.429Z,8.25
2022-09-30T06:53:06.436Z,8.26
2022-09-30T06:54:06.422Z,8.30
2022-09-30T06:55:06.403Z,8.34
2022-09-30T06:56:06.393Z,8.36
2022-09-30T06:57:06.381Z,8.40
2022-09-30T06:58:06.390Z,8.45
2022-09-30T06:59:06.368Z,8.50
2022-09-30T07:00:06.380Z,8.55
2022-09-30T07:01:06.494Z,8.59
2022-09-30T07:02:06.403Z,8.65
2022-09-30T07:03:06.311Z,8.71
2022-09-30T07:04:06.323Z,8.76
2022-09-30T07:05:06.293Z,8.79
2022-09-30T07:06:06.284Z,8.84
2022-09-30T07:07:06.275Z,8.91
2022-09-30T07:08:06.256Z,8.94
2022-09-30T07:09:06.313Z,8.98
2022-09-30T07:10:06.250Z,9.01
2022-09-30T07:11:06.229Z,9.08
2022-09-30T07:12:06.217Z,9.13
2022-09-30T07:13:06.203Z,9.14
2022-09-30T07:14:06.188Z,9.18
2022-09-30T07:15:09.220Z,9.21
2022-09-30T07:16:06.197Z,9.24
2022-09-30T07:17:06.172Z,9.26
2022-09-30T07:18:06.148Z,9.28
2022-09-30T07:19:06.133Z,9.32
2022-09-30T07:20:06.151Z,9.33
2022-09-30T07:21:06.126Z,9.35
2022-09-30T07:22:06.115Z,9.36
2022-09-30T07:23:06.110Z,9.38
2022-09-30T07:24:06.084Z,9.40
2022-09-30T07:25:06.087Z,9.42
2022-09-30T07:26:06.066Z,9.46
2022-09-30T07:27:06.053Z,9.48
2022-09-30T07:28:06.049Z,9.48
2022-09-30T07:29:06.026Z,9.50
2022-09-30T07:30:14.142Z,9.51
2022-09-30T07:31:30.872Z,9.53
2022-09-30T07:32:06.076Z,9.54
2022-09-30T07:33:06.007Z,9.57
2022-09-30T07:34:05.980Z,9.60
2022-09-30T07:35:05.991Z,9.61
2022-09-30T07:36:05.952Z,9.65
2022-09-30T07:37:05.946Z,9.68
2022-09-30T07:38:05.963Z,9.71
2022-09-30T07:39:06.516Z,9.74
2022-09-30T07:40:05.930Z,9.78
2022-09-30T07:41:05.929Z,9.83
2022-09-30T07:42:05.898Z,9.86
2022-09-30T07:43:05.915Z,9.89
2022-09-30T07:44:05.866Z,9.91
2022-09-30T07:45:05.915Z,9.96
2022-09-30T07:46:05.926Z,10.01
2022-09-30T07:47:05.831Z,10.05
2022-09-30T07:48:05.822Z,10.09
2022-09-30T07:49:05.812Z,10.12
2022-09-30T07:50:05.821Z,10.15
2022-09-30T07:51:05.783Z,10.18
2022-09-30T07:52:05.778Z,10.22
2022-09-30T07:53:05.766Z,10.25
2022-09-30T07:54:05.775Z,10.26
2022-09-30T07:55:05.759Z,10.29
2022-09-30T07:56:05.746Z,10.32
2022-09-30T07:57:10.124Z,10.36
2022-09-30T07:58:05.717Z,10.40
2022-09-30T07:59:05.704Z,10.44
2022-09-30T08:00:29.882Z,10.47
2022-09-30T08:01:05.750Z,10.52
2022-09-30T08:02:05.724Z,10.55
2022-09-30T08:03:05.664Z,10.56
2022-09-30T08:04:05.649Z,10.61
2022-09-30T08:05:05.655Z,10.64
2022-09-30T08:06:05.656Z,10.68
2022-09-30T08:07:05.622Z,10.73
2022-09-30T08:08:05.602Z,10.73
2022-09-30T08:09:05.626Z,10.76
2022-09-30T08:10:05.589Z,10.82
2022-09-30T08:11:05.589Z,10.85
2022-09-30T08:12:05.581Z,10.88
2022-09-30T08:13:06.315Z,10.94
2022-09-30T08:14:05.571Z,10.97
2022-09-30T08:15:05.526Z,11.00
2022-09-30T08:16:05.742Z,11.06
2022-09-30T08:17:05.520Z,11.07
2022-09-30T08:18:05.501Z,11.11
2022-09-30T08:19:05.485Z,11.15
2022-09-30T08:20:09.570Z,11.21
2022-09-30T08:21:05.464Z,11.24
2022-09-30T08:22:05.482Z,11.27
2022-09-30T08:23:05.442Z,11.32
2022-09-30T08:24:05.454Z,11.35
2022-09-30T08:25:05.420Z,11.37
2022-09-30T08:26:05.427Z,11.40
2022-09-30T08:27:05.495Z,11.43
2022-09-30T08:28:05.398Z,11.47
2022-09-30T08:29:05.371Z,11.51
2022-09-30T08:30:05.421Z,11.54
2022-09-30T08:31:05.374Z,11.60
2022-09-30T08:32:05.436Z,11.61
2022-09-30T08:33:05.421Z,11.67
2022-09-30T08:34:05.324Z,11.72
2022-09-30T08:35:05.312Z,11.75
2022-09-30T08:36:05.302Z,11.79
2022-09-30T08:37:09.280Z,11.83
2022-09-30T08:38:05.298Z,11.85
2022-09-30T08:39:05.296Z,11.88
2022-09-30T08:40:05.258Z,11.94
2022-09-30T08:41:05.241Z,11.96
2022-09-30T08:42:18.982Z,12.01
2022-09-30T08:43:05.243Z,12.05
2022-09-30T08:44:05.242Z,12.09
2022-09-30T08:45:05.212Z,12.13
2022-09-30T08:46:05.360Z,12.17
2022-09-30T08:47:05.192Z,12.19
2022-09-30T08:48:05.316Z,12.23
2022-09-30T08:49:05.156Z,12.27
2022-09-30T08:50:05.179Z,12.29
2022-09-30T08:51:05.137Z,12.34
2022-09-30T08:52:05.127Z,12.37
2022-09-30T08:53:05.152Z,12.42
2022-09-30T08:54:05.125Z,12.46
2022-09-30T08:55:05.225Z,12.50
2022-09-30T08:56:05.081Z,12.54
2022-09-30T08:57:05.067Z,12.59
2022-09-30T08:58:05.060Z,12.62
2022-09-30T08:59:05.055Z,12.65
2022-09-30T09:00:05.041Z,12.71
2022-09-30T09:01:05.142Z,12.74
2022-09-30T09:02:05.141Z,12.77
2022-09-30T09:03:05.050Z,12.79
2022-09-30T09:04:05.009Z,12.83
2022-09-30T09:05:04.986Z,12.87
2022-09-30T09:06:04.977Z,12.89
2022-09-30T09:07:05.026Z,12.92
2022-09-30T09:08:04.948Z,12.93
2022-09-30T09:09:04.954Z,12.96
2022-09-30T09:10:04.951Z,13.00
2022-09-30T09:11:04.918Z,13.04
2022-09-30T09:12:04.911Z,13.05
2022-09-30T09:13:04.906Z,13.10
2022-09-30T09:14:04.898Z,13.11
2022-09-30T09:15:04.937Z,13.15
2022-09-30T09:16:04.873Z,13.19
2022-09-30T09:17:04.994Z,13.22
2022-09-30T09:18:22.670Z,13.25
2022-09-30T09:19:04.843Z,13.28
2022-09-30T09:20:04.859Z,13.32
2022-09-30T09:21:04.818Z,13.36
2022-09-30T09:22:04.820Z,13.39
2022-09-30T09:23:04.792Z,13.41
2022-09-30T09:24:04.779Z,13.46
2022-09-30T09:25:04.762Z,13.48
2022-09-30T09:26:04.764Z,13.51
2022-09-30T09:27:04.747Z,13.55
2022-09-30T09:28:04.874Z,13.59
2022-09-30T09:29:04.724Z,13.62
2022-09-30T09:30:04.717Z,13.63
2022-09-30T09:31:04.710Z,13.67
2022-09-30T09:32:04.746Z,13.70
2022-09-30T09:33:04.681Z,13.73
2022-09-30T09:34:04.666Z,13.78
2022-09-30T09:35:04.655Z,13.79
2022-09-30T09:36:04.648Z,13.82
2022-09-30T09:37:04.663Z,13.85
2022-09-30T09:38:04.640Z,13.88
2022-09-30T09:39:04.634Z,13.91
2022-09-30T09:40:04.822Z,13.95
2022-09-30T09:41:04.589Z,13.97
2022-09-30T09:42:04.580Z,14.00
2022-09-30T09:43:04.602Z,14.02
2022-09-30T09:44:04.561Z,14.02
2022-09-30T09:45:04.551Z,14.04
2022-09-30T09:46:04.608Z,14.07
2022-09-30T09:47:04.538Z,14.09
2022-09-30T09:48:04.520Z,14.07
2022-09-30T09:49:04.525Z,14.14
2022-09-30T09:50:04.595Z,14.18
2022-09-30T09:51:04.477Z,14.20
2022-09-30T09:52:04.474Z,14.22
2022-09-30T09:53:04.468Z,14.25
2022-09-30T09:54:04.467Z,14.27
2022-09-30T09:55:04.441Z,14.32
2022-09-30T09:56:04.431Z,14.35
2022-09-30T09:57:04.418Z,14.39
2022-09-30T09:58:04.429Z,14.43
2022-09-30T09:59:04.439Z,14.47
2022-09-30T10:00:04.393Z,14.51
2022-09-30T10:01:07.662Z,14.54
2022-09-30T10:02:04.431Z,14.57
2022-09-30T10:03:04.351Z,14.60
2022-09-30T10:04:04.350Z,14.62
2022-09-30T10:05:04.345Z,14.65
2022-09-30T10:06:04.326Z,14.68
2022-09-30T10:07:04.314Z,14.70
2022-09-30T10:08:04.309Z,14.73
2022-09-30T10:09:04.291Z,14.80
2022-09-30T10:10:04.292Z,14.83
2022-09-30T10:11:04.267Z,14.86
2022-09-30T10:12:04.264Z,14.89
2022-09-30T10:13:04.251Z,14.94
2022-09-30T10:14:04.240Z,14.95
2022-09-30T10:15:04.245Z,14.96
2022-09-30T10:16:04.733Z,14.98
2022-09-30T10:17:04.233Z,15.02
2022-09-30T10:18:04.203Z,15.03
2022-09-30T10:19:09.293Z,15.07
2022-09-30T10:20:04.320Z,15.10
2022-09-30T10:21:04.265Z,15.10
2022-09-30T10:22:04.159Z,15.14
2022-09-30T10:23:04.174Z,15.14
2022-09-30T10:24:04.129Z,15.19
2022-09-30T10:25:04.114Z,15.27
2022-09-30T10:26:04.128Z,15.32
2022-09-30T10:27:04.109Z,15.36
2022-09-30T10:28:04.161Z,15.44
2022-09-30T10:29:04.076Z,15.49
2022-09-30T10:30:04.073Z,15.54
2022-09-30T10:31:04.082Z,15.59
2022-09-30T10:32:04.126Z,15.65
2022-09-30T10:33:04.029Z,15.69
2022-09-30T10:34:04.013Z,15.74
2022-09-30T10:35:04.012Z,15.76
2022-09-30T10:36:04.000Z,15.80
2022-09-30T10:37:04.007Z,15.83
2022-09-30T10:38:03.975Z,15.84
2022-09-30T10:39:06.653Z,15.87
2022-09-30T10:40:03.951Z,15.94
2022-09-30T10:41:03.943Z,16.01
2022-09-30T10:42:03.958Z,16.07
2022-09-30T10:43:03.922Z,16.14
2022-09-30T10:44:03.919Z,16.21
2022-09-30T10:45:03.906Z,16.33
2022-09-30T10:47:03.968Z,16.53
2022-09-30T10:48:03.869Z,16.64
2022-09-30T10:49:03.867Z,16.66
2022-09-30T10:50:03.841Z,16.70
2022-09-30T10:51:03.835Z,16.78
2022-09-30T10:52:03.835Z,16.88
2022-09-30T10:53:03.817Z,16.98
2022-09-30T10:54:03.794Z,17.08
2022-09-30T10:55:05.216Z,17.19
2022-09-30T10:56:03.779Z,17.28
2022-09-30T10:57:03.785Z,17.38
2022-09-30T10:58:03.751Z,17.51
2022-09-30T10:59:03.746Z,17.63
2022-09-30T11:00:03.773Z,17.72
2022-09-30T11:01:03.753Z,17.78
2022-09-30T11:02:05.866Z,17.74
2022-09-30T11:03:03.853Z,17.81
2022-09-30T11:04:03.684Z,17.75
2022-09-30T11:05:03.677Z,17.75
2022-09-30T11:06:03.671Z,17.89
2022-09-30T11:07:03.663Z,18.00
2022-09-30T11:08:03.651Z,18.11
2022-09-30T11:09:03.648Z,18.26
2022-09-30T11:10:03.621Z,18.45
2022-09-30T11:11:07.231Z,18.60
2022-09-30T11:12:03.610Z,18.80
2022-09-30T11:13:03.822Z,18.98
2022-09-30T11:14:03.581Z,19.14
2022-09-30T11:15:03.625Z,19.31
2022-09-30T11:16:03.634Z,19.47
2022-09-30T11:17:03.543Z,19.62
2022-09-30T11:18:03.535Z,19.76
2022-09-30T11:19:03.538Z,19.88
2022-09-30T11:20:03.516Z,19.99
2022-09-30T11:21:03.511Z,20.13
2022-09-30T11:22:03.491Z,20.21
2022-09-30T11:23:03.488Z,20.31
2022-09-30T11:24:03.481Z,20.33
2022-09-30T11:25:07.419Z,20.39
2022-09-30T11:26:03.463Z,20.38
2022-09-30T11:27:03.443Z,20.32
2022-09-30T11:28:03.545Z,20.38
2022-09-30T11:29:03.457Z,20.50
2022-09-30T11:30:03.413Z,20.42
2022-09-30T11:31:07.013Z,20.61
2022-09-30T11:32:03.439Z,20.73
2022-09-30T11:33:03.389Z,20.67
2022-09-30T11:34:03.373Z,20.41
2022-09-30T11:35:03.425Z,20.20
2022-09-30T11:36:03.341Z,19.95
2022-09-30T11:37:03.332Z,19.77
2022-09-30T11:38:03.326Z,19.69
2022-09-30T11:39:03.313Z,19.68
2022-09-30T11:40:03.387Z,19.81
2022-09-30T11:41:03.291Z,19.96
2022-09-30T11:42:03.278Z,20.01
2022-09-30T11:43:07.999Z,20.13
2022-09-30T11:44:03.259Z,20.23
2022-09-30T11:45:03.249Z,20.36
2022-09-30T11:46:03.323Z,20.31
2022-09-30T11:47:03.227Z,20.20
2022-09-30T11:48:03.228Z,20.11
2022-09-30T11:49:03.209Z,20.05
2022-09-30T11:50:03.190Z,20.05
2022-09-30T11:51:03.187Z,20.01
2022-09-30T11:52:03.167Z,19.91
2022-09-30T11:53:03.161Z,19.76
2022-09-30T11:54:03.148Z,19.56
2022-09-30T11:55:03.149Z,19.37
2022-09-30T11:56:03.130Z,19.36
2022-09-30T11:57:03.124Z,19.33
2022-09-30T11:58:22.433Z,19.28
2022-09-30T11:59:03.100Z,19.26
2022-09-30T12:00:03.084Z,19.22
2022-09-30T12:01:03.077Z,19.22
2022-09-30T12:02:03.160Z,19.19
2022-09-30T12:03:05.694Z,19.16
2022-09-30T12:04:03.049Z,19.11
2022-09-30T12:05:03.037Z,19.06
2022-09-30T12:06:03.021Z,19.00
2022-09-30T12:07:03.038Z,18.94
2022-09-30T12:08:03.006Z,18.88
2022-09-30T12:09:02.999Z,18.81
2022-09-30T12:10:02.974Z,18.78
2022-09-30T12:11:02.999Z,18.76
2022-09-30T12:12:02.957Z,18.80
2022-09-30T12:13:02.969Z,18.85
2022-09-30T12:14:02.942Z,18.95
2022-09-30T12:15:02.925Z,19.08
2022-09-30T12:16:02.990Z,19.18
2022-09-30T12:17:03.024Z,19.28
2022-09-30T12:18:02.906Z,19.37
2022-09-30T12:19:02.900Z,19.47
2022-09-30T12:20:02.869Z,19.55
2022-09-30T12:21:02.866Z,19.65
2022-09-30T12:22:02.859Z,19.77
2022-09-30T12:23:02.831Z,19.81
2022-09-30T12:24:02.848Z,19.87
2022-09-30T12:25:02.823Z,19.87
2022-09-30T12:26:02.812Z,19.88
2022-09-30T12:27:02.809Z,19.92
2022-09-30T12:28:02.801Z,19.96
2022-09-30T12:29:03.819Z,19.99
2022-09-30T12:30:02.781Z,19.96
2022-09-30T12:31:02.753Z,19.96
2022-09-30T12:32:02.863Z,19.92
2022-09-30T12:33:02.735Z,19.76
2022-09-30T12:34:02.735Z,19.73
2022-09-30T12:35:02.724Z,19.66
2022-09-30T12:36:02.697Z,19.65
2022-09-30T12:37:02.695Z,19.62
2022-09-30T12:38:02.686Z,19.58
2022-09-30T12:39:02.661Z,19.54
2022-09-30T12:40:02.686Z,19.50
2022-09-30T12:41:02.659Z,19.46
2022-09-30T12:42:02.631Z,19.41
2022-09-30T12:43:02.621Z,19.37
2022-09-30T12:44:02.608Z,19.32
2022-09-30T12:45:02.645Z,19.29
2022-09-30T12:46:02.658Z,19.22
2022-09-30T12:47:02.599Z,19.16
2022-09-30T12:48:02.574Z,19.11
2022-09-30T12:49:02.552Z,19.02
2022-09-30T12:50:02.550Z,18.99
2022-09-30T12:51:02.554Z,18.98
2022-09-30T12:52:02.538Z,18.95
2022-09-30T12:53:02.509Z,18.92
2022-09-30T12:54:02.498Z,18.85
2022-09-30T12:55:02.489Z,18.81
2022-09-30T12:56:02.500Z,18.78
2022-09-30T12:57:02.477Z,18.73
2022-09-30T12:58:02.469Z,18.67
2022-09-30T12:59:02.449Z,18.66
2022-09-30T13:00:02.443Z,18.67
2022-09-30T13:01:02.446Z,18.72
2022-09-30T13:02:02.482Z,18.76
2022-09-30T13:03:02.406Z,18.76
2022-09-30T13:04:02.415Z,18.76
2022-09-30T13:05:02.391Z,18.76
2022-09-30T13:06:02.383Z,18.81
2022-09-30T13:07:02.382Z,18.82
2022-09-30T13:08:02.365Z,18.87